sensor_id;sensor_type;location;lat;lon;timestamp;temperature;humidity
52743;DHT22;55583;53.012;6.556;2022-12-18T00:01:57;-3.00;99.90
52743;DHT22;55583;53.012;6.556;2022-12-18T00:04:25;-3.00;99.90
52743;DHT22;55583;53.012;6.556;2022-12-18T00:06:51;-2.90;99.90
52743;DHT22;55583;53.012;6.556;2022-12-18T00:09:18;-3.00;99.90
52743;DHT22;55583;53.012;6.556;2022-12-18T00:11:44;-3.00;99.90
52743;DHT22;55583;53.012;6.556;2022-12-18T00:14:13;-3.00;99.90
52743;DHT22;55583;53.012;6.556;2022-12-18T00:16:39;-3.00;99.90
52743;DHT22;55583;53.012;6.556;2022-12-18T00:19:06;-3.10;99.90
52743;DHT22;55583;53.012;6.556;2022-12-18T00:21:33;-3.10;99.90
52743;DHT22;55583;53.012;6.556;2022-12-18T00:23:59;-3.10;99.90
52743;DHT22;55583;53.012;6.556;2022-12-18T00:26:30;-3.10;99.90
52743;DHT22;55583;53.012;6.556;2022-12-18T00:29:01;-3.20;99.90
52743;DHT22;55583;53.012;6.556;2022-12-18T00:31:27;-3.20;99.90
52743;DHT22;55583;53.012;6.556;2022-12-18T00:33:57;-3.20;99.90
52743;DHT22;55583;53.012;6.556;2022-12-18T00:36:29;-3.20;99.90
52743;DHT22;55583;53.012;6.556;2022-12-18T00:38:56;-1.80;99.90
52743;DHT22;55583;53.012;6.556;2022-12-18T00:41:22;-3.30;99.90
52743;DHT22;55583;53.012;6.556;2022-12-18T00:44:10;-2.90;99.90
52743;DHT22;55583;53.012;6.556;2022-12-18T00:46:36;-3.40;99.90
52743;DHT22;55583;53.012;6.556;2022-12-18T00:49:03;-3.40;99.90
52743;DHT22;55583;53.012;6.556;2022-12-18T00:51:29;-3.40;99.90
52743;DHT22;55583;53.012;6.556;2022-12-18T00:53:54;-3.40;99.90
52743;DHT22;55583;53.012;6.556;2022-12-18T00:56:20;-3.40;99.90
52743;DHT22;55583;53.012;6.556;2022-12-18T00:58:48;-3.40;99.90
52743;DHT22;55583;53.012;6.556;2022-12-18T01:01:14;-3.40;99.90
52743;DHT22;55583;53.012;6.556;2022-12-18T01:03:40;-3.50;99.90
52743;DHT22;55583;53.012;6.556;2022-12-18T01:06:10;-3.40;99.90
52743;DHT22;55583;53.012;6.556;2022-12-18T01:08:37;-3.50;99.90
52743;DHT22;55583;53.012;6.556;2022-12-18T01:11:08;-3.50;99.90
52743;DHT22;55583;53.012;6.556;2022-12-18T01:13:35;-3.50;99.90
52743;DHT22;55583;53.012;6.556;2022-12-18T01:16:00;-3.60;99.90
52743;DHT22;55583;53.012;6.556;2022-12-18T01:18:26;-3.60;99.90
52743;DHT22;55583;53.012;6.556;2022-12-18T01:20:51;-3.70;99.90
52743;DHT22;55583;53.012;6.556;2022-12-18T01:23:17;-3.70;99.90
52743;DHT22;55583;53.012;6.556;2022-12-18T01:25:43;-3.80;99.90
52743;DHT22;55583;53.012;6.556;2022-12-18T01:28:08;-3.90;99.90
52743;DHT22;55583;53.012;6.556;2022-12-18T01:30:34;-3.90;99.90
52743;DHT22;55583;53.012;6.556;2022-12-18T01:32:59;-3.90;99.90
52743;DHT22;55583;53.012;6.556;2022-12-18T01:35:25;-3.90;99.90
52743;DHT22;55583;53.012;6.556;2022-12-18T01:37:54;-4.00;99.90
52743;DHT22;55583;53.012;6.556;2022-12-18T01:40:20;-4.00;99.90
52743;DHT22;55583;53.012;6.556;2022-12-18T01:42:53;-4.00;99.90
52743;DHT22;55583;53.012;6.556;2022-12-18T01:45:22;-4.00;99.90
52743;DHT22;55583;53.012;6.556;2022-12-18T01:47:57;-4.10;99.90
52743;DHT22;55583;53.012;6.556;2022-12-18T01:52:55;-4.10;99.90
52743;DHT22;55583;53.012;6.556;2022-12-18T01:55:24;-4.20;99.90
52743;DHT22;55583;53.012;6.556;2022-12-18T01:57:53;-4.20;99.90
52743;DHT22;55583;53.012;6.556;2022-12-18T02:00:20;-4.20;99.90
52743;DHT22;55583;53.012;6.556;2022-12-18T02:02:47;-4.20;99.90
52743;DHT22;55583;53.012;6.556;2022-12-18T02:05:18;-4.30;99.90
52743;DHT22;55583;53.012;6.556;2022-12-18T02:08:10;-4.30;99.90
52743;DHT22;55583;53.012;6.556;2022-12-18T02:16:25;-4.30;99.90
52743;DHT22;55583;53.012;6.556;2022-12-18T02:18:57;-4.20;99.90
52743;DHT22;55583;53.012;6.556;2022-12-18T02:25:00;-4.20;99.90
52743;DHT22;55583;53.012;6.556;2022-12-18T02:27:16;-4.20;99.90
52743;DHT22;55583;53.012;6.556;2022-12-18T02:29:48;-4.20;99.90
52743;DHT22;55583;53.012;6.556;2022-12-18T02:32:16;-4.30;99.90
52743;DHT22;55583;53.012;6.556;2022-12-18T02:34:43;-4.30;99.90
52743;DHT22;55583;53.012;6.556;2022-12-18T02:37:12;-4.30;99.90
52743;DHT22;55583;53.012;6.556;2022-12-18T02:39:42;-4.40;99.90
52743;DHT22;55583;53.012;6.556;2022-12-18T02:42:08;-4.50;99.90
52743;DHT22;55583;53.012;6.556;2022-12-18T02:44:42;-4.50;99.90
52743;DHT22;55583;53.012;6.556;2022-12-18T02:47:10;-4.50;99.90
52743;DHT22;55583;53.012;6.556;2022-12-18T02:57:38;-4.70;99.90
52743;DHT22;55583;53.012;6.556;2022-12-18T03:00:12;-4.70;99.90
52743;DHT22;55583;53.012;6.556;2022-12-18T03:05:22;-4.80;99.90
52743;DHT22;55583;53.012;6.556;2022-12-18T03:11:04;-4.80;99.90
52743;DHT22;55583;53.012;6.556;2022-12-18T03:13:46;-4.90;99.90
52743;DHT22;55583;53.012;6.556;2022-12-18T03:16:18;-4.90;99.90
52743;DHT22;55583;53.012;6.556;2022-12-18T03:19:06;-4.90;99.90
52743;DHT22;55583;53.012;6.556;2022-12-18T03:21:41;-4.90;99.90
52743;DHT22;55583;53.012;6.556;2022-12-18T03:24:09;-5.00;99.90
52743;DHT22;55583;53.012;6.556;2022-12-18T03:26:38;-5.00;99.90
52743;DHT22;55583;53.012;6.556;2022-12-18T03:29:13;-5.00;99.90
52743;DHT22;55583;53.012;6.556;2022-12-18T03:31:47;-5.10;99.90
52743;DHT22;55583;53.012;6.556;2022-12-18T03:34:17;-5.10;99.90
52743;DHT22;55583;53.012;6.556;2022-12-18T03:36:45;-5.10;99.90
52743;DHT22;55583;53.012;6.556;2022-12-18T03:39:11;-5.20;99.90
52743;DHT22;55583;53.012;6.556;2022-12-18T03:41:50;-5.20;99.90
52743;DHT22;55583;53.012;6.556;2022-12-18T03:48:14;-5.20;99.90
52743;DHT22;55583;53.012;6.556;2022-12-18T03:50:19;-5.30;99.90
52743;DHT22;55583;53.012;6.556;2022-12-18T03:52:49;-5.30;99.90
52743;DHT22;55583;53.012;6.556;2022-12-18T03:55:18;-5.30;99.90
52743;DHT22;55583;53.012;6.556;2022-12-18T03:57:44;-5.30;99.90
52743;DHT22;55583;53.012;6.556;2022-12-18T04:00:13;-5.30;99.90
52743;DHT22;55583;53.012;6.556;2022-12-18T04:02:43;-5.30;99.90
52743;DHT22;55583;53.012;6.556;2022-12-18T04:05:10;-5.40;99.90
52743;DHT22;55583;53.012;6.556;2022-12-18T04:07:38;-5.40;99.90
52743;DHT22;55583;53.012;6.556;2022-12-18T04:10:07;-5.40;99.90
52743;DHT22;55583;53.012;6.556;2022-12-18T04:12:33;-5.40;99.90
52743;DHT22;55583;53.012;6.556;2022-12-18T04:14:58;-5.40;99.90
52743;DHT22;55583;53.012;6.556;2022-12-18T04:17:24;-5.40;99.90
52743;DHT22;55583;53.012;6.556;2022-12-18T04:19:50;-4.00;99.90
52743;DHT22;55583;53.012;6.556;2022-12-18T04:22:16;-5.50;99.90
52743;DHT22;55583;53.012;6.556;2022-12-18T04:24:41;-5.60;99.90
52743;DHT22;55583;53.012;6.556;2022-12-18T04:27:07;-5.60;99.90
52743;DHT22;55583;53.012;6.556;2022-12-18T04:29:33;-5.60;99.90
52743;DHT22;55583;53.012;6.556;2022-12-18T04:31:58;-5.60;99.90
52743;DHT22;55583;53.012;6.556;2022-12-18T04:34:24;-5.60;99.90
52743;DHT22;55583;53.012;6.556;2022-12-18T04:36:50;-5.70;99.90
52743;DHT22;55583;53.012;6.556;2022-12-18T04:39:18;-5.70;99.90
52743;DHT22;55583;53.012;6.556;2022-12-18T04:41:44;-5.70;99.90
52743;DHT22;55583;53.012;6.556;2022-12-18T04:44:10;-5.70;99.90
52743;DHT22;55583;53.012;6.556;2022-12-18T04:46:35;-5.80;99.90
52743;DHT22;55583;53.012;6.556;2022-12-18T04:49:01;-5.80;99.90
52743;DHT22;55583;53.012;6.556;2022-12-18T04:51:27;-5.80;99.90
52743;DHT22;55583;53.012;6.556;2022-12-18T04:53:53;-5.80;99.90
52743;DHT22;55583;53.012;6.556;2022-12-18T04:56:19;-5.80;99.90
52743;DHT22;55583;53.012;6.556;2022-12-18T04:58:44;-5.80;99.90
52743;DHT22;55583;53.012;6.556;2022-12-18T05:01:14;-5.80;99.90
52743;DHT22;55583;53.012;6.556;2022-12-18T05:03:40;-5.30;99.90
52743;DHT22;55583;53.012;6.556;2022-12-18T05:06:07;-5.80;99.90
52743;DHT22;55583;53.012;6.556;2022-12-18T05:08:33;-5.70;99.90
52743;DHT22;55583;53.012;6.556;2022-12-18T05:11:11;-5.70;99.90
52743;DHT22;55583;53.012;6.556;2022-12-18T05:13:38;-5.70;99.90
52743;DHT22;55583;53.012;6.556;2022-12-18T05:16:04;-5.80;99.90
52743;DHT22;55583;53.012;6.556;2022-12-18T05:18:31;-5.80;99.90
52743;DHT22;55583;53.012;6.556;2022-12-18T05:20:56;-5.80;99.90
52743;DHT22;55583;53.012;6.556;2022-12-18T05:23:23;-5.80;99.90
52743;DHT22;55583;53.012;6.556;2022-12-18T05:26:01;-5.80;99.90
52743;DHT22;55583;53.012;6.556;2022-12-18T05:28:29;-5.90;99.90
52743;DHT22;55583;53.012;6.556;2022-12-18T05:30:58;-5.80;99.90
52743;DHT22;55583;53.012;6.556;2022-12-18T05:33:25;-5.90;99.90
52743;DHT22;55583;53.012;6.556;2022-12-18T05:35:57;-5.90;99.90
52743;DHT22;55583;53.012;6.556;2022-12-18T05:38:24;-5.90;99.90
52743;DHT22;55583;53.012;6.556;2022-12-18T05:40:51;-5.90;99.90
52743;DHT22;55583;53.012;6.556;2022-12-18T05:43:18;-5.90;99.90
52743;DHT22;55583;53.012;6.556;2022-12-18T05:45:44;-6.00;99.90
52743;DHT22;55583;53.012;6.556;2022-12-18T05:48:13;-6.00;99.90
52743;DHT22;55583;53.012;6.556;2022-12-18T05:50:41;-6.00;99.90
52743;DHT22;55583;53.012;6.556;2022-12-18T05:53:08;-6.10;99.90
52743;DHT22;55583;53.012;6.556;2022-12-18T05:55:38;-6.00;99.90
52743;DHT22;55583;53.012;6.556;2022-12-18T05:58:05;-6.00;99.90
52743;DHT22;55583;53.012;6.556;2022-12-18T06:00:35;-6.00;99.90
52743;DHT22;55583;53.012;6.556;2022-12-18T06:03:05;-6.00;99.90
52743;DHT22;55583;53.012;6.556;2022-12-18T06:05:39;-6.00;99.90
52743;DHT22;55583;53.012;6.556;2022-12-18T06:08:05;-6.00;99.90
52743;DHT22;55583;53.012;6.556;2022-12-18T06:10:31;-5.60;99.90
52743;DHT22;55583;53.012;6.556;2022-12-18T06:12:57;-6.00;99.90
52743;DHT22;55583;53.012;6.556;2022-12-18T06:15:22;-6.10;99.90
52743;DHT22;55583;53.012;6.556;2022-12-18T06:17:48;-6.10;99.90
52743;DHT22;55583;53.012;6.556;2022-12-18T06:20:13;-6.10;99.90
52743;DHT22;55583;53.012;6.556;2022-12-18T06:22:39;-6.10;99.90
52743;DHT22;55583;53.012;6.556;2022-12-18T06:25:05;-6.20;99.90
52743;DHT22;55583;53.012;6.556;2022-12-18T06:27:31;-6.20;99.90
52743;DHT22;55583;53.012;6.556;2022-12-18T06:29:59;-6.20;99.90
52743;DHT22;55583;53.012;6.556;2022-12-18T06:32:25;-6.20;99.90
52743;DHT22;55583;53.012;6.556;2022-12-18T06:34:50;-6.20;99.90
52743;DHT22;55583;53.012;6.556;2022-12-18T06:37:16;-6.20;99.90
52743;DHT22;55583;53.012;6.556;2022-12-18T06:39:42;-6.20;99.90
52743;DHT22;55583;53.012;6.556;2022-12-18T06:42:07;-6.20;99.90
52743;DHT22;55583;53.012;6.556;2022-12-18T06:44:33;-6.30;99.90
52743;DHT22;55583;53.012;6.556;2022-12-18T06:46:58;-6.30;99.90
52743;DHT22;55583;53.012;6.556;2022-12-18T06:49:24;-6.30;99.90
52743;DHT22;55583;53.012;6.556;2022-12-18T06:51:50;-6.30;99.90
52743;DHT22;55583;53.012;6.556;2022-12-18T06:54:16;-6.40;99.90
52743;DHT22;55583;53.012;6.556;2022-12-18T06:56:41;-6.40;99.90
52743;DHT22;55583;53.012;6.556;2022-12-18T06:59:07;-6.40;99.90
52743;DHT22;55583;53.012;6.556;2022-12-18T07:01:33;-6.40;99.90
52743;DHT22;55583;53.012;6.556;2022-12-18T07:03:58;-6.40;99.90
52743;DHT22;55583;53.012;6.556;2022-12-18T07:06:25;-6.40;99.90
52743;DHT22;55583;53.012;6.556;2022-12-18T07:08:53;-6.40;99.90
52743;DHT22;55583;53.012;6.556;2022-12-18T07:11:19;-6.30;99.90
52743;DHT22;55583;53.012;6.556;2022-12-18T07:13:45;-6.30;99.90
52743;DHT22;55583;53.012;6.556;2022-12-18T07:16:14;-6.40;99.90
52743;DHT22;55583;53.012;6.556;2022-12-18T07:18:40;-6.40;99.90
52743;DHT22;55583;53.012;6.556;2022-12-18T07:21:08;-6.40;99.90
52743;DHT22;55583;53.012;6.556;2022-12-18T07:23:35;-6.40;99.90
52743;DHT22;55583;53.012;6.556;2022-12-18T07:26:11;-6.50;99.90
52743;DHT22;55583;53.012;6.556;2022-12-18T07:28:39;-6.50;99.90
52743;DHT22;55583;53.012;6.556;2022-12-18T07:31:17;-6.50;99.90
52743;DHT22;55583;53.012;6.556;2022-12-18T07:33:43;-6.60;99.90
52743;DHT22;55583;53.012;6.556;2022-12-18T07:36:09;-6.60;99.90
52743;DHT22;55583;53.012;6.556;2022-12-18T07:38:36;-6.60;99.90
52743;DHT22;55583;53.012;6.556;2022-12-18T07:41:12;-6.50;99.90
52743;DHT22;55583;53.012;6.556;2022-12-18T07:43:38;-6.50;99.90
52743;DHT22;55583;53.012;6.556;2022-12-18T07:46:04;-6.50;99.90
52743;DHT22;55583;53.012;6.556;2022-12-18T07:48:30;-6.40;99.90
52743;DHT22;55583;53.012;6.556;2022-12-18T07:51:00;-6.40;99.90
52743;DHT22;55583;53.012;6.556;2022-12-18T07:53:26;-6.40;99.90
52743;DHT22;55583;53.012;6.556;2022-12-18T07:55:59;-6.40;99.90
52743;DHT22;55583;53.012;6.556;2022-12-18T07:58:25;-6.30;99.90
52743;DHT22;55583;53.012;6.556;2022-12-18T08:00:51;-6.30;99.90
52743;DHT22;55583;53.012;6.556;2022-12-18T08:03:18;-6.30;99.90
52743;DHT22;55583;53.012;6.556;2022-12-18T08:05:44;-6.20;99.90
52743;DHT22;55583;53.012;6.556;2022-12-18T08:08:10;-6.20;99.90
52743;DHT22;55583;53.012;6.556;2022-12-18T08:10:36;-6.20;99.90
52743;DHT22;55583;53.012;6.556;2022-12-18T08:13:02;-6.10;99.90
52743;DHT22;55583;53.012;6.556;2022-12-18T08:15:28;-6.10;99.90
52743;DHT22;55583;53.012;6.556;2022-12-18T08:17:56;-6.00;99.90
52743;DHT22;55583;53.012;6.556;2022-12-18T08:20:22;-5.90;99.90
52743;DHT22;55583;53.012;6.556;2022-12-18T08:22:48;-5.90;99.90
52743;DHT22;55583;53.012;6.556;2022-12-18T08:25:13;-5.80;99.90
52743;DHT22;55583;53.012;6.556;2022-12-18T08:27:39;-5.80;99.90
52743;DHT22;55583;53.012;6.556;2022-12-18T08:30:05;-5.80;99.90
52743;DHT22;55583;53.012;6.556;2022-12-18T08:32:31;-5.80;99.90
52743;DHT22;55583;53.012;6.556;2022-12-18T08:34:58;-5.70;99.90
52743;DHT22;55583;53.012;6.556;2022-12-18T08:37:24;-5.70;99.90
52743;DHT22;55583;53.012;6.556;2022-12-18T08:39:50;-5.60;99.90
52743;DHT22;55583;53.012;6.556;2022-12-18T08:42:16;-5.50;99.90
52743;DHT22;55583;53.012;6.556;2022-12-18T08:45:00;-5.50;99.90
52743;DHT22;55583;53.012;6.556;2022-12-18T08:47:25;-5.50;99.90
52743;DHT22;55583;53.012;6.556;2022-12-18T08:49:51;-5.40;99.90
52743;DHT22;55583;53.012;6.556;2022-12-18T08:52:17;-5.40;99.90
52743;DHT22;55583;53.012;6.556;2022-12-18T08:54:42;-5.30;99.90
52743;DHT22;55583;53.012;6.556;2022-12-18T08:57:08;-5.30;99.90
52743;DHT22;55583;53.012;6.556;2022-12-18T08:59:34;-5.20;99.90
52743;DHT22;55583;53.012;6.556;2022-12-18T09:01:59;-5.20;99.90
52743;DHT22;55583;53.012;6.556;2022-12-18T09:04:25;-5.10;99.90
52743;DHT22;55583;53.012;6.556;2022-12-18T09:06:50;-5.10;99.90
52743;DHT22;55583;53.012;6.556;2022-12-18T09:09:16;-5.00;99.90
52743;DHT22;55583;53.012;6.556;2022-12-18T09:11:42;-4.90;99.90
52743;DHT22;55583;53.012;6.556;2022-12-18T09:14:09;-4.90;99.90
52743;DHT22;55583;53.012;6.556;2022-12-18T09:16:35;-4.80;99.90
52743;DHT22;55583;53.012;6.556;2022-12-18T09:19:02;-4.70;99.90
52743;DHT22;55583;53.012;6.556;2022-12-18T09:21:31;-4.60;99.90
52743;DHT22;55583;53.012;6.556;2022-12-18T09:23:57;-4.50;99.90
52743;DHT22;55583;53.012;6.556;2022-12-18T09:26:24;-4.50;99.90
52743;DHT22;55583;53.012;6.556;2022-12-18T09:28:50;-4.40;99.90
52743;DHT22;55583;53.012;6.556;2022-12-18T09:31:17;-4.30;99.90
52743;DHT22;55583;53.012;6.556;2022-12-18T09:33:43;-4.20;99.90
52743;DHT22;55583;53.012;6.556;2022-12-18T09:36:13;-4.10;99.90
52743;DHT22;55583;53.012;6.556;2022-12-18T09:38:39;-4.00;99.90
52743;DHT22;55583;53.012;6.556;2022-12-18T09:43:52;-3.70;99.90
52743;DHT22;55583;53.012;6.556;2022-12-18T09:46:36;-3.60;99.90
52743;DHT22;55583;53.012;6.556;2022-12-18T09:49:07;-3.50;99.90
52743;DHT22;55583;53.012;6.556;2022-12-18T09:51:43;-3.40;99.90
52743;DHT22;55583;53.012;6.556;2022-12-18T09:54:18;-3.30;99.90
52743;DHT22;55583;53.012;6.556;2022-12-18T09:56:46;-3.20;99.90
52743;DHT22;55583;53.012;6.556;2022-12-18T09:59:25;-3.10;99.90
52743;DHT22;55583;53.012;6.556;2022-12-18T10:01:51;-3.00;99.90
52743;DHT22;55583;53.012;6.556;2022-12-18T10:04:18;-3.00;99.90
52743;DHT22;55583;53.012;6.556;2022-12-18T10:06:54;-3.00;99.90
52743;DHT22;55583;53.012;6.556;2022-12-18T10:14:59;-3.00;99.90
52743;DHT22;55583;53.012;6.556;2022-12-18T10:22:53;-2.90;99.90
52743;DHT22;55583;53.012;6.556;2022-12-18T10:27:54;-2.90;99.90
52743;DHT22;55583;53.012;6.556;2022-12-18T10:30:23;-2.90;99.90
52743;DHT22;55583;53.012;6.556;2022-12-18T10:32:48;-2.80;99.90
52743;DHT22;55583;53.012;6.556;2022-12-18T10:35:25;-2.70;99.90
52743;DHT22;55583;53.012;6.556;2022-12-18T10:38:04;-2.00;99.90
52743;DHT22;55583;53.012;6.556;2022-12-18T10:40:31;-2.50;99.90
52743;DHT22;55583;53.012;6.556;2022-12-18T10:43:12;-2.40;99.90
52743;DHT22;55583;53.012;6.556;2022-12-18T10:45:38;-2.30;99.90
52743;DHT22;55583;53.012;6.556;2022-12-18T10:48:05;-2.20;99.90
52743;DHT22;55583;53.012;6.556;2022-12-18T10:50:46;-2.10;99.90
52743;DHT22;55583;53.012;6.556;2022-12-18T10:53:19;-2.10;99.90
52743;DHT22;55583;53.012;6.556;2022-12-18T10:55:46;-2.00;99.90
52743;DHT22;55583;53.012;6.556;2022-12-18T10:58:33;-2.00;99.90
52743;DHT22;55583;53.012;6.556;2022-12-18T11:03:36;-1.90;99.90
52743;DHT22;55583;53.012;6.556;2022-12-18T11:06:29;-1.80;99.90
52743;DHT22;55583;53.012;6.556;2022-12-18T11:11:28;-1.80;99.90
52743;DHT22;55583;53.012;6.556;2022-12-18T11:14:05;-1.80;99.90
52743;DHT22;55583;53.012;6.556;2022-12-18T11:16:43;-1.70;99.90
52743;DHT22;55583;53.012;6.556;2022-12-18T11:21:42;-1.60;99.90
52743;DHT22;55583;53.012;6.556;2022-12-18T11:26:46;-1.50;99.90
52743;DHT22;55583;53.012;6.556;2022-12-18T11:29:33;-1.40;99.90
52743;DHT22;55583;53.012;6.556;2022-12-18T11:34:52;-1.30;99.90
52743;DHT22;55583;53.012;6.556;2022-12-18T11:37:19;-1.20;99.90
52743;DHT22;55583;53.012;6.556;2022-12-18T11:39:50;-1.20;99.90
52743;DHT22;55583;53.012;6.556;2022-12-18T11:42:27;-1.20;99.90
52743;DHT22;55583;53.012;6.556;2022-12-18T11:47:47;-1.30;99.90
52743;DHT22;55583;53.012;6.556;2022-12-18T11:50:20;-1.30;99.90
52743;DHT22;55583;53.012;6.556;2022-12-18T11:52:47;-1.30;99.90
52743;DHT22;55583;53.012;6.556;2022-12-18T12:00:23;-1.30;99.90
52743;DHT22;55583;53.012;6.556;2022-12-18T12:03:21;-1.30;99.90
52743;DHT22;55583;53.012;6.556;2022-12-18T12:06:14;-1.30;99.90
52743;DHT22;55583;53.012;6.556;2022-12-18T12:11:32;-1.30;99.90
52743;DHT22;55583;53.012;6.556;2022-12-18T12:30:07;-1.10;99.90
52743;DHT22;55583;53.012;6.556;2022-12-18T12:38:04;-1.10;99.90
52743;DHT22;55583;53.012;6.556;2022-12-18T12:40:35;-1.10;99.90
52743;DHT22;55583;53.012;6.556;2022-12-18T12:43:24;-1.10;99.90
52743;DHT22;55583;53.012;6.556;2022-12-18T12:46:12;-1.10;99.90
52743;DHT22;55583;53.012;6.556;2022-12-18T12:48:54;-1.10;99.90
52743;DHT22;55583;53.012;6.556;2022-12-18T12:51:36;-1.00;99.90
52743;DHT22;55583;53.012;6.556;2022-12-18T12:54:15;-1.00;99.90
52743;DHT22;55583;53.012;6.556;2022-12-18T12:57:15;-0.70;99.90
52743;DHT22;55583;53.012;6.556;2022-12-18T12:59:59;-0.90;99.90
52743;DHT22;55583;53.012;6.556;2022-12-18T13:02:34;-0.80;99.90
52743;DHT22;55583;53.012;6.556;2022-12-18T13:05:21;-0.80;99.90
52743;DHT22;55583;53.012;6.556;2022-12-18T13:10:28;-0.70;99.90
52743;DHT22;55583;53.012;6.556;2022-12-18T13:15:46;-0.70;99.90
52743;DHT22;55583;53.012;6.556;2022-12-18T13:21:04;-0.60;99.90
52743;DHT22;55583;53.012;6.556;2022-12-18T13:23:38;0.50;99.90
52743;DHT22;55583;53.012;6.556;2022-12-18T13:31:13;-0.60;99.90
52743;DHT22;55583;53.012;6.556;2022-12-18T13:33:44;-0.60;99.90
52743;DHT22;55583;53.012;6.556;2022-12-18T13:36:30;-0.60;99.90
52743;DHT22;55583;53.012;6.556;2022-12-18T13:41:37;-0.60;99.90
52743;DHT22;55583;53.012;6.556;2022-12-18T13:46:48;-0.60;99.90
52743;DHT22;55583;53.012;6.556;2022-12-18T13:49:38;-0.60;99.90
52743;DHT22;55583;53.012;6.556;2022-12-18T13:52:17;-0.60;99.90
52743;DHT22;55583;53.012;6.556;2022-12-18T13:54:47;-0.60;99.90
52743;DHT22;55583;53.012;6.556;2022-12-18T13:57:29;-0.60;99.90
52743;DHT22;55583;53.012;6.556;2022-12-18T13:59:56;-0.60;99.90
52743;DHT22;55583;53.012;6.556;2022-12-18T14:02:24;-0.60;99.90
52743;DHT22;55583;53.012;6.556;2022-12-18T14:04:51;-0.60;99.90
52743;DHT22;55583;53.012;6.556;2022-12-18T14:07:25;-0.60;99.90
52743;DHT22;55583;53.012;6.556;2022-12-18T14:09:56;-0.70;99.90
52743;DHT22;55583;53.012;6.556;2022-12-18T14:12:25;-0.60;99.90
52743;DHT22;55583;53.012;6.556;2022-12-18T14:15:35;-0.70;99.90
52743;DHT22;55583;53.012;6.556;2022-12-18T14:18:15;-0.70;99.90
52743;DHT22;55583;53.012;6.556;2022-12-18T14:20:44;-0.70;99.90
52743;DHT22;55583;53.012;6.556;2022-12-18T14:25:58;-0.80;99.90
52743;DHT22;55583;53.012;6.556;2022-12-18T14:28:24;-0.80;99.90
52743;DHT22;55583;53.012;6.556;2022-12-18T14:30:50;-0.80;99.90
52743;DHT22;55583;53.012;6.556;2022-12-18T14:33:19;-0.90;99.90
52743;DHT22;55583;53.012;6.556;2022-12-18T14:38:38;-0.80;99.90
52743;DHT22;55583;53.012;6.556;2022-12-18T14:41:09;-0.90;99.90
52743;DHT22;55583;53.012;6.556;2022-12-18T14:43:38;-0.80;99.90
52743;DHT22;55583;53.012;6.556;2022-12-18T14:48:59;-0.80;99.90
52743;DHT22;55583;53.012;6.556;2022-12-18T14:51:28;-0.80;99.90
52743;DHT22;55583;53.012;6.556;2022-12-18T14:54:05;-0.80;99.90
52743;DHT22;55583;53.012;6.556;2022-12-18T14:56:47;-0.90;99.90
52743;DHT22;55583;53.012;6.556;2022-12-18T14:59:16;-0.90;99.90
52743;DHT22;55583;53.012;6.556;2022-12-18T15:01:57;-1.00;99.90
52743;DHT22;55583;53.012;6.556;2022-12-18T15:04:37;-1.00;99.90
52743;DHT22;55583;53.012;6.556;2022-12-18T15:07:09;-1.00;99.90
52743;DHT22;55583;53.012;6.556;2022-12-18T15:09:37;-1.00;99.90
52743;DHT22;55583;53.012;6.556;2022-12-18T15:12:03;-0.20;99.90
52743;DHT22;55583;53.012;6.556;2022-12-18T15:14:35;-1.10;99.90
52743;DHT22;55583;53.012;6.556;2022-12-18T15:17:05;-1.10;99.90
52743;DHT22;55583;53.012;6.556;2022-12-18T15:19:40;-1.10;99.90
52743;DHT22;55583;53.012;6.556;2022-12-18T15:24:47;-1.10;99.90
52743;DHT22;55583;53.012;6.556;2022-12-18T15:32:34;-1.10;99.90
52743;DHT22;55583;53.012;6.556;2022-12-18T15:37:35;-1.20;99.90
52743;DHT22;55583;53.012;6.556;2022-12-18T15:40:00;-1.20;99.90
52743;DHT22;55583;53.012;6.556;2022-12-18T15:42:28;-1.20;99.90
52743;DHT22;55583;53.012;6.556;2022-12-18T15:45:13;-1.20;99.90
52743;DHT22;55583;53.012;6.556;2022-12-18T15:47:39;-1.20;99.90
52743;DHT22;55583;53.012;6.556;2022-12-18T15:50:05;-1.20;99.90
52743;DHT22;55583;53.012;6.556;2022-12-18T15:52:43;-1.20;99.90
52743;DHT22;55583;53.012;6.556;2022-12-18T15:55:15;-1.00;99.90
52743;DHT22;55583;53.012;6.556;2022-12-18T15:57:59;-1.20;99.90
52743;DHT22;55583;53.012;6.556;2022-12-18T16:00:25;-1.20;99.90
52743;DHT22;55583;53.012;6.556;2022-12-18T16:02:51;-1.20;99.90
52743;DHT22;55583;53.012;6.556;2022-12-18T16:05:17;-1.20;99.90
52743;DHT22;55583;53.012;6.556;2022-12-18T16:07:44;-1.20;99.90
52743;DHT22;55583;53.012;6.556;2022-12-18T16:10:10;-1.20;99.90
52743;DHT22;55583;53.012;6.556;2022-12-18T16:12:36;-1.20;99.90
52743;DHT22;55583;53.012;6.556;2022-12-18T16:15:02;-1.20;99.90
52743;DHT22;55583;53.012;6.556;2022-12-18T16:17:28;-1.20;99.90
52743;DHT22;55583;53.012;6.556;2022-12-18T16:19:53;-1.20;99.90
52743;DHT22;55583;53.012;6.556;2022-12-18T16:22:24;-1.20;99.90
52743;DHT22;55583;53.012;6.556;2022-12-18T16:24:52;-1.20;99.90
52743;DHT22;55583;53.012;6.556;2022-12-18T16:27:18;-1.20;99.90
52743;DHT22;55583;53.012;6.556;2022-12-18T16:29:44;-1.20;99.90
52743;DHT22;55583;53.012;6.556;2022-12-18T16:32:15;-1.10;99.90
52743;DHT22;55583;53.012;6.556;2022-12-18T16:34:42;-1.20;99.90
52743;DHT22;55583;53.012;6.556;2022-12-18T16:37:10;-1.10;99.90
52743;DHT22;55583;53.012;6.556;2022-12-18T16:39:37;-1.20;99.90
52743;DHT22;55583;53.012;6.556;2022-12-18T16:42:11;-1.20;99.90
52743;DHT22;55583;53.012;6.556;2022-12-18T16:44:42;-1.10;99.90
52743;DHT22;55583;53.012;6.556;2022-12-18T16:47:09;-1.10;99.90
52743;DHT22;55583;53.012;6.556;2022-12-18T16:49:35;-1.10;99.90
52743;DHT22;55583;53.012;6.556;2022-12-18T16:52:04;-1.10;99.90
52743;DHT22;55583;53.012;6.556;2022-12-18T16:54:30;-1.20;99.90
52743;DHT22;55583;53.012;6.556;2022-12-18T16:56:56;-1.10;99.90
52743;DHT22;55583;53.012;6.556;2022-12-18T16:59:22;-1.10;99.90
52743;DHT22;55583;53.012;6.556;2022-12-18T17:01:47;-1.10;99.90
52743;DHT22;55583;53.012;6.556;2022-12-18T17:04:13;-1.10;99.90
52743;DHT22;55583;53.012;6.556;2022-12-18T17:06:42;-1.00;99.90
52743;DHT22;55583;53.012;6.556;2022-12-18T17:09:11;-1.00;99.90
52743;DHT22;55583;53.012;6.556;2022-12-18T17:11:38;-1.00;99.90
52743;DHT22;55583;53.012;6.556;2022-12-18T17:14:09;-1.00;99.90
52743;DHT22;55583;53.012;6.556;2022-12-18T17:16:35;-1.00;99.90
52743;DHT22;55583;53.012;6.556;2022-12-18T17:19:00;-1.00;99.90
52743;DHT22;55583;53.012;6.556;2022-12-18T17:21:26;-1.00;99.90
52743;DHT22;55583;53.012;6.556;2022-12-18T17:23:52;-1.00;99.90
52743;DHT22;55583;53.012;6.556;2022-12-18T17:26:17;-0.90;99.90
52743;DHT22;55583;53.012;6.556;2022-12-18T17:28:43;-0.90;99.90
52743;DHT22;55583;53.012;6.556;2022-12-18T17:31:15;-0.90;99.90
52743;DHT22;55583;53.012;6.556;2022-12-18T17:33:41;-0.90;99.90
52743;DHT22;55583;53.012;6.556;2022-12-18T17:36:06;-0.90;99.90
52743;DHT22;55583;53.012;6.556;2022-12-18T17:38:35;-0.80;99.90
52743;DHT22;55583;53.012;6.556;2022-12-18T17:41:06;-0.80;99.90
52743;DHT22;55583;53.012;6.556;2022-12-18T17:43:32;-0.80;99.90
52743;DHT22;55583;53.012;6.556;2022-12-18T17:46:05;-0.80;99.90
52743;DHT22;55583;53.012;6.556;2022-12-18T17:48:32;-0.80;99.90
52743;DHT22;55583;53.012;6.556;2022-12-18T17:51:02;-0.80;99.90
52743;DHT22;55583;53.012;6.556;2022-12-18T17:53:28;-0.70;99.90